createdAt,value
2018-12-20T00:00:15.494Z,7.47
2018-12-20T00:02:44.525Z,7.13
2018-12-20T00:05:13.772Z,7.53
2018-12-20T00:07:42.884Z,7.50
2018-12-20T00:10:12.078Z,7.03
2018-12-20T00:12:41.203Z,7.83
2018-12-20T00:15:10.429Z,7.90
2018-12-20T00:17:44.970Z,7.23
2018-12-20T00:20:14.202Z,6.90
2018-12-20T00:22:43.462Z,7.77
2018-12-20T00:25:12.988Z,8.40
2018-12-20T00:27:41.975Z,7.00
2018-12-20T00:30:11.146Z,7.30
2018-12-20T00:32:40.282Z,7.73
2018-12-20T00:35:09.868Z,6.93
2018-12-20T00:37:39.029Z,6.80
2018-12-20T00:40:08.124Z,7.10
2018-12-20T00:42:37.113Z,7.67
2018-12-20T00:45:07.341Z,7.63
2018-12-20T00:47:36.369Z,7.60
2018-12-20T00:50:06.604Z,7.37
2018-12-20T00:52:35.672Z,7.93
2018-12-20T00:55:05.138Z,7.67
2018-12-20T00:57:34.238Z,7.80
2018-12-20T01:00:04.636Z,7.83
2018-12-20T01:02:33.666Z,8.13
2018-12-20T01:05:03.656Z,7.77
2018-12-20T01:07:32.896Z,7.40
2018-12-20T01:10:02.147Z,7.40
2018-12-20T01:12:31.216Z,7.53
2018-12-20T01:15:00.179Z,7.23
2018-12-20T01:17:33.435Z,7.57
2018-12-20T01:20:02.477Z,7.40
2018-12-20T01:22:31.680Z,7.43
2018-12-20T01:25:02.184Z,8.33
2018-12-20T01:27:31.372Z,7.77
2018-12-20T01:30:00.439Z,7.53
2018-12-20T01:32:29.560Z,7.93
2018-12-20T01:34:58.596Z,7.90
2018-12-20T01:37:27.844Z,8.03
2018-12-20T01:39:56.934Z,7.53
2018-12-20T01:42:26.184Z,7.13
2018-12-20T01:44:55.237Z,6.93
2018-12-20T01:47:24.420Z,8.17
2018-12-20T01:49:53.660Z,7.90
2018-12-20T01:52:22.788Z,8.10
2018-12-20T01:54:52.010Z,7.87
2018-12-20T01:57:22.367Z,8.03
2018-12-20T01:59:51.427Z,8.00
2018-12-20T02:02:20.605Z,8.07
2018-12-20T02:04:49.764Z,7.77
2018-12-20T02:07:18.891Z,7.73
2018-12-20T02:09:47.922Z,8.40
2018-12-20T02:12:17.223Z,8.27
2018-12-20T02:14:46.418Z,7.53
2018-12-20T02:17:15.609Z,8.00
2018-12-20T02:19:44.736Z,8.13
2018-12-20T02:22:13.897Z,8.03
2018-12-20T02:24:43.009Z,8.03
2018-12-20T02:27:12.272Z,7.93
2018-12-20T02:29:41.695Z,8.67
2018-12-20T02:32:12.582Z,7.73
2018-12-20T02:34:43.192Z,7.80
2018-12-20T02:37:12.251Z,8.30
2018-12-20T02:39:41.253Z,8.37
2018-12-20T02:42:10.391Z,8.30
2018-12-20T02:44:39.577Z,8.57
2018-12-20T02:47:09.961Z,8.27
2018-12-20T02:49:38.988Z,8.30
2018-12-20T02:52:08.083Z,7.93
2018-12-20T02:54:37.304Z,8.63
2018-12-20T02:57:06.415Z,8.10
2018-12-20T02:59:35.413Z,8.07
2018-12-20T03:02:04.545Z,8.43
2018-12-20T03:04:33.682Z,9.27
2018-12-20T03:07:02.833Z,8.73
2018-12-20T03:09:32.253Z,8.43
2018-12-20T03:12:01.374Z,8.87
2018-12-20T03:14:30.540Z,9.03
2018-12-20T03:16:59.844Z,9.03
2018-12-20T03:19:28.997Z,8.47
2018-12-20T03:21:58.112Z,8.33
2018-12-20T03:24:27.226Z,8.73
2018-12-20T03:26:56.525Z,8.73
2018-12-20T03:29:26.369Z,8.53
2018-12-20T03:31:55.770Z,9.23
2018-12-20T03:34:24.867Z,9.17
2018-12-20T03:36:53.858Z,8.33
2018-12-20T03:39:23.221Z,9.17
2018-12-20T03:41:52.280Z,8.33
2018-12-20T03:44:21.397Z,9.23
2018-12-20T03:46:50.467Z,8.90
2018-12-20T03:49:19.665Z,8.43
2018-12-20T03:51:48.860Z,8.80
2018-12-20T03:54:18.094Z,9.47
2018-12-20T03:56:47.427Z,8.70
2018-12-20T03:59:16.635Z,8.73
2018-12-20T04:01:45.650Z,8.93
2018-12-20T04:04:14.675Z,9.77
2018-12-20T04:06:43.759Z,8.40
2018-12-20T04:09:12.725Z,8.53
2018-12-20T04:11:41.724Z,9.40
2018-12-20T04:14:10.759Z,9.03
2018-12-20T04:16:40.148Z,9.57
2018-12-20T04:19:09.212Z,8.67
2018-12-20T04:21:38.440Z,9.20
2018-12-20T04:24:07.780Z,8.93
2018-12-20T04:26:37.176Z,8.93
2018-12-20T04:29:07.392Z,8.67
2018-12-20T04:31:36.440Z,9.33
2018-12-20T04:34:05.500Z,9.57
2018-12-20T04:36:34.584Z,9.40
2018-12-20T04:39:05.477Z,8.67
2018-12-20T04:41:34.641Z,9.17
2018-12-20T04:44:04.014Z,9.37
2018-12-20T04:46:33.200Z,9.13
2018-12-20T04:49:02.568Z,9.30
2018-12-20T04:51:31.913Z,9.10
2018-12-20T04:54:01.784Z,10.03
2018-12-20T04:56:30.915Z,9.83
2018-12-20T04:59:00.167Z,9.60
2018-12-20T05:01:29.338Z,9.13
2018-12-20T05:03:58.917Z,10.17
2018-12-20T05:06:28.138Z,9.53
2018-12-20T05:08:57.571Z,9.87
2018-12-20T05:11:26.884Z,9.93
2018-12-20T05:13:56.091Z,9.90
2018-12-20T05:16:25.375Z,10.47
2018-12-20T05:18:54.519Z,10.10
2018-12-20T05:21:23.729Z,10.97
2018-12-20T05:23:52.868Z,10.37
2018-12-20T05:26:22.181Z,10.20
2018-12-20T05:28:51.355Z,10.33
2018-12-20T05:31:20.465Z,10.90
2018-12-20T05:33:49.864Z,9.73
2018-12-20T05:36:19.138Z,10.53
2018-12-20T05:38:48.181Z,9.03
2018-12-20T05:41:17.165Z,9.17
2018-12-20T05:43:46.335Z,11.00
2018-12-20T05:46:15.398Z,11.03
2018-12-20T05:48:44.576Z,10.20
2018-12-20T05:51:13.684Z,10.03
2018-12-20T05:53:42.771Z,10.47
2018-12-20T05:56:11.795Z,10.30
2018-12-20T05:58:41.006Z,10.60
2018-12-20T06:01:10.215Z,10.83
2018-12-20T06:03:39.311Z,10.80
2018-12-20T06:06:08.585Z,10.10
2018-12-20T06:08:37.717Z,10.03
2018-12-20T06:11:06.714Z,10.63
2018-12-20T06:13:36.147Z,9.80
2018-12-20T06:16:12.450Z,10.07
2018-12-20T06:18:36.651Z,10.50
2018-12-20T06:21:06.034Z,10.67
2018-12-20T06:23:35.257Z,10.50
2018-12-20T06:26:04.311Z,9.93
2018-12-20T06:28:34.828Z,10.50
2018-12-20T06:31:03.800Z,9.77
2018-12-20T06:33:32.801Z,10.73
2018-12-20T06:36:01.813Z,10.87
2018-12-20T06:38:30.869Z,10.27
2018-12-20T06:40:59.851Z,9.77
2018-12-20T06:43:28.825Z,10.93
2018-12-20T06:45:57.935Z,11.67
2018-12-20T06:48:26.956Z,10.70
2018-12-20T06:50:56.073Z,12.03
2018-12-20T06:53:25.055Z,10.63
2018-12-20T06:55:54.060Z,10.43
2018-12-20T06:58:23.768Z,10.83
2018-12-20T07:00:52.786Z,10.93
2018-12-20T07:03:21.835Z,11.00
2018-12-20T07:05:50.921Z,10.17
2018-12-20T07:08:19.928Z,10.83
2018-12-20T07:10:49.111Z,10.57
2018-12-20T07:13:18.151Z,10.97
2018-12-20T07:15:47.169Z,10.00
2018-12-20T07:18:16.290Z,10.70
2018-12-20T07:20:45.472Z,10.57
2018-12-20T07:23:14.535Z,10.43
2018-12-20T07:25:43.652Z,11.50
2018-12-20T07:28:12.753Z,11.33
2018-12-20T07:30:41.850Z,11.37
2018-12-20T07:33:10.836Z,11.13
2018-12-20T07:35:39.902Z,11.43
2018-12-20T07:38:09.060Z,12.00
2018-12-20T07:40:38.310Z,14.00
2018-12-20T07:43:07.399Z,10.57
2018-12-20T07:45:36.612Z,11.83
2018-12-20T07:48:05.620Z,11.67
2018-12-20T07:50:35.198Z,10.60
2018-12-20T07:53:04.353Z,12.07
2018-12-20T07:55:33.406Z,11.03
2018-12-20T07:58:02.391Z,11.77
2018-12-20T08:00:34.789Z,10.87
2018-12-20T08:03:03.907Z,11.47
2018-12-20T08:05:33.032Z,11.20
2018-12-20T08:08:02.138Z,11.00
2018-12-20T08:10:31.215Z,11.30
2018-12-20T08:13:00.235Z,11.83
2018-12-20T08:15:29.316Z,10.83
2018-12-20T08:17:58.314Z,11.13
2018-12-20T08:20:27.373Z,11.00
2018-12-20T08:22:56.488Z,11.13
2018-12-20T08:25:25.531Z,11.67
2018-12-20T08:27:54.555Z,10.83
2018-12-20T08:30:23.546Z,10.87
2018-12-20T08:32:52.575Z,12.03
2018-12-20T08:35:21.764Z,10.93
2018-12-20T08:37:50.860Z,11.73
2018-12-20T08:40:19.869Z,12.10
2018-12-20T08:42:48.933Z,10.97
2018-12-20T08:45:17.949Z,12.23
2018-12-20T08:47:47.026Z,10.77
2018-12-20T08:50:16.065Z,11.23
2018-12-20T08:52:45.282Z,12.47
2018-12-20T08:55:14.287Z,11.53
2018-12-20T08:57:43.262Z,12.17
2018-12-20T09:00:12.486Z,11.03
2018-12-20T09:02:41.538Z,11.80
2018-12-20T09:05:10.560Z,12.73
2018-12-20T09:07:39.566Z,11.80
2018-12-20T09:10:08.771Z,11.47
2018-12-20T09:12:37.775Z,11.80
2018-12-20T09:15:06.948Z,11.90
2018-12-20T09:17:35.958Z,12.53
2018-12-20T09:20:05.781Z,12.03
2018-12-20T09:22:34.759Z,11.57
2018-12-20T09:25:03.869Z,11.30
2018-12-20T09:27:32.872Z,12.03
2018-12-20T09:30:02.138Z,12.43
2018-12-20T09:32:31.249Z,10.90
2018-12-20T09:35:00.427Z,12.50
2018-12-20T09:37:29.514Z,11.50
2018-12-20T09:39:59.678Z,12.30
2018-12-20T09:42:28.930Z,11.20
2018-12-20T09:44:58.939Z,11.87
2018-12-20T09:47:33.431Z,11.63
2018-12-20T09:50:02.503Z,11.53
2018-12-20T09:52:31.502Z,11.30
2018-12-20T09:55:00.663Z,11.33
2018-12-20T09:57:29.711Z,10.77
2018-12-20T09:59:58.711Z,12.57
2018-12-20T10:02:27.892Z,12.00
2018-12-20T10:04:56.905Z,11.30
2018-12-20T10:07:26.062Z,12.93
2018-12-20T10:09:55.184Z,12.33
2018-12-20T10:12:24.250Z,11.60
2018-12-20T10:14:53.336Z,11.67
2018-12-20T10:17:22.476Z,12.17
2018-12-20T10:19:51.484Z,12.20
2018-12-20T10:22:20.531Z,12.17
2018-12-20T10:24:49.559Z,12.27
2018-12-20T10:27:18.611Z,11.37
2018-12-20T10:29:47.625Z,12.07
2018-12-20T10:32:16.601Z,12.03
2018-12-20T10:34:45.610Z,11.60
2018-12-20T10:37:14.853Z,12.90
2018-12-20T10:39:43.842Z,12.17
2018-12-20T10:42:12.840Z,11.97
2018-12-20T10:44:41.863Z,12.17
2018-12-20T10:47:16.285Z,12.27
2018-12-20T10:49:45.931Z,11.30
2018-12-20T10:52:15.050Z,11.83
2018-12-20T10:54:44.089Z,11.73
2018-12-20T10:57:13.150Z,11.67
2018-12-20T10:59:42.123Z,12.30
2018-12-20T11:03:15.247Z,11.53
2018-12-20T11:05:49.612Z,10.90
2018-12-20T11:08:23.049Z,12.80
2018-12-20T11:10:56.262Z,13.27
2018-12-20T11:13:25.541Z,11.57
2018-12-20T11:15:54.605Z,11.83
2018-12-20T11:18:23.732Z,10.77
2018-12-20T11:20:53.065Z,12.37
2018-12-20T11:23:22.075Z,12.23
2018-12-20T11:25:51.097Z,12.63
2018-12-20T11:28:21.879Z,12.33
2018-12-20T11:30:50.946Z,11.80
2018-12-20T11:33:19.929Z,11.10
2018-12-20T11:35:49.091Z,11.40
2018-12-20T11:38:18.207Z,11.87
2018-12-20T11:40:47.198Z,12.00
2018-12-20T11:43:16.169Z,12.83
2018-12-20T11:45:45.191Z,11.83
2018-12-20T11:48:14.221Z,12.27
2018-12-20T11:50:43.231Z,13.17
2018-12-20T11:53:13.772Z,11.97
2018-12-20T11:55:42.745Z,11.30
2018-12-20T11:58:11.800Z,10.90
2018-12-20T12:00:40.920Z,11.97
2018-12-20T12:03:09.892Z,10.90
2018-12-20T12:05:38.975Z,11.03
2018-12-20T12:08:08.309Z,12.53
2018-12-20T12:10:37.404Z,11.83
2018-12-20T12:13:06.533Z,12.13
2018-12-20T12:15:35.758Z,12.77
2018-12-20T12:18:04.971Z,11.53
2018-12-20T12:20:34.898Z,11.13
2018-12-20T12:23:04.340Z,11.57
2018-12-20T12:25:33.396Z,12.00
2018-12-20T12:28:02.485Z,11.03
2018-12-20T12:30:31.639Z,10.83
2018-12-20T12:33:00.647Z,11.37
2018-12-20T12:35:30.506Z,11.77
2018-12-20T12:37:59.505Z,10.93
2018-12-20T12:40:28.769Z,11.43
2018-12-20T12:42:58.992Z,10.47
2018-12-20T12:45:28.180Z,11.80
2018-12-20T12:48:03.630Z,12.57
2018-12-20T12:50:31.590Z,11.03
2018-12-20T12:53:00.591Z,12.00
2018-12-20T12:55:30.681Z,11.63
2018-12-20T12:58:04.649Z,12.37
2018-12-20T13:00:30.752Z,12.03
2018-12-20T13:02:59.906Z,12.17
2018-12-20T13:05:28.910Z,10.93
2018-12-20T13:07:58.996Z,11.07
2018-12-20T13:10:28.023Z,10.73
2018-12-20T13:12:57.027Z,12.07
2018-12-20T13:15:26.123Z,12.00
2018-12-20T13:17:55.240Z,11.00
2018-12-20T13:20:24.353Z,11.07
2018-12-20T13:22:53.328Z,11.63
2018-12-20T13:25:22.571Z,11.80
2018-12-20T13:27:51.622Z,11.20
2018-12-20T13:30:20.608Z,12.23
2018-12-20T13:32:49.600Z,11.27
2018-12-20T13:35:18.630Z,11.73
2018-12-20T13:37:47.695Z,11.07
2018-12-20T13:40:16.940Z,11.47
2018-12-20T13:42:46.017Z,10.43
2018-12-20T13:45:21.748Z,10.83
2018-12-20T13:47:50.994Z,10.83
2018-12-20T13:50:20.062Z,9.83
2018-12-20T13:52:49.071Z,11.00
2018-12-20T13:55:18.068Z,11.60
2018-12-20T13:57:47.171Z,10.47
2018-12-20T14:00:16.320Z,11.07
2018-12-20T14:02:48.437Z,11.87
2018-12-20T14:05:17.515Z,10.20
2018-12-20T14:07:46.524Z,10.50
2018-12-20T14:10:15.542Z,10.37
2018-12-20T14:12:44.613Z,10.77
2018-12-20T14:15:13.679Z,11.03
2018-12-20T14:17:43.166Z,10.23
2018-12-20T14:20:12.409Z,11.07
2018-12-20T14:22:41.454Z,11.13
2018-12-20T14:25:10.603Z,10.60
2018-12-20T14:27:39.609Z,10.87
2018-12-20T14:30:10.120Z,10.37
2018-12-20T14:32:39.277Z,11.10
2018-12-20T14:35:08.471Z,10.57
2018-12-20T14:37:37.636Z,10.97
2018-12-20T14:40:08.943Z,11.00
2018-12-20T14:42:38.072Z,11.37
2018-12-20T14:45:07.420Z,10.90
2018-12-20T14:47:36.486Z,10.83
2018-12-20T14:50:07.103Z,10.37
2018-12-20T14:52:36.098Z,9.87
2018-12-20T14:55:06.579Z,10.47
2018-12-20T14:57:35.718Z,10.43
2018-12-20T15:00:07.257Z,9.93
2018-12-20T15:02:36.390Z,10.13
2018-12-20T15:05:05.998Z,11.63
2018-12-20T15:07:35.030Z,10.97
2018-12-20T15:10:06.004Z,10.13
2018-12-20T15:12:35.094Z,10.70
2018-12-20T15:15:04.682Z,10.93
2018-12-20T15:17:33.819Z,10.97
2018-12-20T15:20:02.849Z,9.97
2018-12-20T15:22:31.931Z,10.03
2018-12-20T15:25:01.007Z,11.27
2018-12-20T15:27:30.077Z,11.03
2018-12-20T15:29:59.143Z,11.40
2018-12-20T15:32:28.332Z,10.00
2018-12-20T15:34:57.338Z,10.07
2018-12-20T15:37:26.468Z,10.33
2018-12-20T15:39:55.677Z,10.33
2018-12-20T15:42:24.701Z,10.00
2018-12-20T15:44:53.815Z,10.50
2018-12-20T15:47:22.957Z,10.40
2018-12-20T15:49:51.983Z,10.13
2018-12-20T15:52:21.120Z,9.67
2018-12-20T15:54:50.482Z,11.03
2018-12-20T15:57:19.513Z,9.57
2018-12-20T15:59:48.540Z,10.17
2018-12-20T16:02:17.737Z,11.17
2018-12-20T16:04:46.760Z,9.60
2018-12-20T16:07:15.807Z,10.57
2018-12-20T16:09:45.036Z,10.20
2018-12-20T16:12:14.090Z,9.73
2018-12-20T16:14:43.216Z,10.30
2018-12-20T16:17:12.233Z,9.27
2018-12-20T16:19:41.405Z,10.13
2018-12-20T16:22:10.476Z,9.77
2018-12-20T16:24:39.606Z,10.53
2018-12-20T16:27:08.694Z,9.30
2018-12-20T16:29:39.885Z,10.00
2018-12-20T16:32:09.228Z,10.03
2018-12-20T16:34:38.448Z,10.00
2018-12-20T16:37:07.567Z,9.27
2018-12-20T16:39:39.163Z,10.27
2018-12-20T16:42:13.738Z,8.33
2018-12-20T16:44:43.655Z,9.20
2018-12-20T16:47:13.511Z,10.00
2018-12-20T16:49:42.539Z,8.80
2018-12-20T16:52:14.128Z,10.00
2018-12-20T16:54:43.134Z,9.90
2018-12-20T16:57:14.632Z,9.53
2018-12-20T16:59:44.443Z,9.37
2018-12-20T17:02:17.223Z,9.40
2018-12-20T17:04:46.351Z,9.57
2018-12-20T17:07:15.457Z,9.37
2018-12-20T17:09:44.520Z,8.70
2018-12-20T17:12:13.831Z,9.83
2018-12-20T17:14:52.434Z,8.20
2018-12-20T17:17:26.966Z,9.93
2018-12-20T17:19:56.000Z,9.30
2018-12-20T17:22:25.325Z,9.17
2018-12-20T17:24:54.407Z,10.50
2018-12-20T17:27:24.316Z,9.73
2018-12-20T17:29:53.432Z,8.63
2018-12-20T17:32:22.535Z,9.40
2018-12-20T17:34:51.763Z,10.07
2018-12-20T17:37:20.784Z,9.40
2018-12-20T17:39:51.192Z,9.60
2018-12-20T17:42:20.208Z,9.60
2018-12-20T17:44:50.259Z,9.03
2018-12-20T17:47:19.383Z,9.00
2018-12-20T17:49:49.401Z,9.67
2018-12-20T17:52:18.478Z,9.40
2018-12-20T17:54:48.951Z,9.20
2018-12-20T17:57:24.587Z,10.47
2018-12-20T17:59:57.163Z,9.47
2018-12-20T18:02:34.406Z,9.17
2018-12-20T18:05:07.120Z,10.73
2018-12-20T18:07:34.595Z,9.97
2018-12-20T18:10:04.209Z,10.23
2018-12-20T18:12:33.219Z,10.23
2018-12-20T18:15:02.295Z,10.07
2018-12-20T18:17:31.330Z,10.57
2018-12-20T18:20:00.914Z,9.47
2018-12-20T18:22:29.921Z,10.47
2018-12-20T18:24:58.938Z,9.93
2018-12-20T18:27:28.032Z,10.57
2018-12-20T18:29:57.117Z,12.20
2018-12-20T18:32:26.137Z,14.03
2018-12-20T18:34:55.201Z,13.00
2018-12-20T18:37:24.232Z,11.83
2018-12-20T18:39:53.295Z,12.10
2018-12-20T18:42:22.650Z,10.73
2018-12-20T18:44:51.699Z,10.67
2018-12-20T18:47:21.103Z,10.17
2018-12-20T18:49:50.141Z,10.43
2018-12-20T18:52:19.265Z,9.83
2018-12-20T18:55:06.566Z,9.87
2018-12-20T18:57:35.723Z,9.03
2018-12-20T19:00:06.718Z,8.27
2018-12-20T19:02:35.855Z,8.67
2018-12-20T19:05:06.088Z,9.27
2018-12-20T19:07:35.229Z,9.03
2018-12-20T19:10:04.853Z,10.43
2018-12-20T19:12:33.869Z,9.30
2018-12-20T19:15:03.484Z,8.30
2018-12-20T19:17:33.039Z,9.30
2018-12-20T19:20:02.196Z,8.10
2018-12-20T19:22:31.319Z,8.80
2018-12-20T19:25:00.626Z,8.53
2018-12-20T19:27:29.853Z,8.90
2018-12-20T19:29:58.929Z,8.33
2018-12-20T19:32:28.081Z,8.00
2018-12-20T19:34:57.097Z,7.97
2018-12-20T19:37:26.172Z,8.97
2018-12-20T19:40:01.640Z,8.93
2018-12-20T19:42:30.765Z,7.90
2018-12-20T19:44:59.809Z,8.27
2018-12-20T19:47:28.938Z,8.77
2018-12-20T19:50:04.746Z,8.33
2018-12-20T19:52:30.800Z,7.70
2018-12-20T19:54:59.864Z,8.07
2018-12-20T19:57:29.046Z,8.03
2018-12-20T19:59:58.526Z,8.60
2018-12-20T20:02:27.657Z,8.87
2018-12-20T20:04:56.829Z,6.70
2018-12-20T20:07:25.901Z,8.10
2018-12-20T20:09:55.063Z,7.33
2018-12-20T20:12:26.952Z,8.00
2018-12-20T20:14:56.096Z,7.40
2018-12-20T20:17:25.356Z,7.27
2018-12-20T20:19:59.690Z,7.17
2018-12-20T20:22:25.742Z,6.90
2018-12-20T20:24:55.032Z,7.13
2018-12-20T20:27:24.161Z,6.10
2018-12-20T20:29:53.401Z,7.33
2018-12-20T20:32:24.038Z,7.57
2018-12-20T20:34:53.136Z,6.03
2018-12-20T20:37:22.304Z,6.57
2018-12-20T20:39:51.470Z,5.87
2018-12-20T20:42:20.585Z,6.77
2018-12-20T20:44:49.676Z,6.57
2018-12-20T20:47:18.831Z,6.60
2018-12-20T20:49:47.988Z,6.80
2018-12-20T20:52:17.127Z,7.03
2018-12-20T20:54:46.288Z,6.30
2018-12-20T20:57:15.446Z,6.67
2018-12-20T20:59:51.321Z,6.83
2018-12-20T21:02:21.801Z,6.37
2018-12-20T21:04:51.059Z,6.70
2018-12-20T21:07:20.206Z,7.00
2018-12-20T21:09:49.286Z,6.90
2018-12-20T21:12:22.851Z,7.33
2018-12-20T21:14:52.555Z,6.83
2018-12-20T21:17:20.593Z,6.97
2018-12-20T21:19:50.393Z,6.93
2018-12-20T21:22:19.574Z,6.77
2018-12-20T21:24:48.616Z,6.57
2018-12-20T21:27:17.666Z,6.70
2018-12-20T21:29:46.700Z,6.27
2018-12-20T21:32:15.812Z,6.10
2018-12-20T21:34:44.923Z,6.83
2018-12-20T21:37:13.933Z,6.60
2018-12-20T21:39:43.031Z,6.27
2018-12-20T21:42:12.118Z,6.97
2018-12-20T21:44:41.160Z,6.57
2018-12-20T21:47:10.185Z,6.10
2018-12-20T21:49:40.200Z,7.03
2018-12-20T21:52:10.569Z,6.90
2018-12-20T21:54:39.794Z,7.00
2018-12-20T21:57:08.937Z,6.63
2018-12-20T21:59:38.036Z,6.23
2018-12-20T22:02:07.133Z,7.10
2018-12-20T22:04:36.154Z,6.17
2018-12-20T22:07:05.172Z,6.97
2018-12-20T22:09:34.203Z,5.90
2018-12-20T22:12:03.289Z,6.77
2018-12-20T22:14:32.364Z,6.17
2018-12-20T22:17:01.494Z,6.53
2018-12-20T22:19:30.598Z,6.93
2018-12-20T22:21:59.806Z,7.27
2018-12-20T22:24:30.002Z,6.87
2018-12-20T22:26:59.125Z,8.13
2018-12-20T22:29:28.236Z,7.10
2018-12-20T22:31:57.283Z,6.60
2018-12-20T22:34:27.336Z,6.27
2018-12-20T22:36:56.422Z,7.00
2018-12-20T22:39:26.182Z,6.77
2018-12-20T22:41:55.190Z,7.07
2018-12-20T22:44:24.338Z,7.23
2018-12-20T22:46:53.469Z,6.87
2018-12-20T22:49:22.493Z,7.77
2018-12-20T22:51:51.555Z,6.73
2018-12-20T22:54:21.177Z,6.87
2018-12-20T22:56:50.363Z,6.93
2018-12-20T22:59:19.542Z,7.37
2018-12-20T23:01:48.681Z,7.13
2018-12-20T23:04:17.736Z,6.77
2018-12-20T23:06:48.372Z,6.73
2018-12-20T23:09:17.383Z,7.60
2018-12-20T23:11:46.393Z,7.07
2018-12-20T23:14:15.419Z,7.20
2018-12-20T23:16:44.439Z,7.90
2018-12-20T23:19:13.487Z,7.07
2018-12-20T23:21:42.484Z,7.17
2018-12-20T23:24:11.480Z,6.77
2018-12-20T23:26:40.473Z,6.90
2018-12-20T23:29:09.501Z,7.20
2018-12-20T23:31:38.585Z,6.83
2018-12-20T23:34:07.629Z,7.23
2018-12-20T23:36:36.808Z,6.70
2018-12-20T23:39:07.039Z,6.60
2018-12-20T23:41:36.049Z,8.23
2018-12-20T23:44:05.127Z,7.87
2018-12-20T23:46:34.125Z,7.23
2018-12-20T23:49:03.169Z,8.17
2018-12-20T23:51:32.178Z,6.97
2018-12-20T23:54:01.193Z,8.07
2018-12-20T23:56:30.196Z,7.90
2018-12-20T23:58:59.312Z,7.70
